createdAt,value
2023-06-02T00:00:12.205Z,4.80
2023-06-02T00:05:36.883Z,9.02
2023-06-02T00:11:03.447Z,7.35
2023-06-02T00:16:27.016Z,4.28
2023-06-02T00:21:50.338Z,5.65
2023-06-02T00:27:15.945Z,8.93
2023-06-02T00:32:39.166Z,5.85
2023-06-02T00:38:05.881Z,5.43
2023-06-02T00:43:32.546Z,9.33
2023-06-02T00:48:58.399Z,5.03
2023-06-02T00:54:27.605Z,5.60
2023-06-02T00:59:58.400Z,5.07
2023-06-02T01:05:22.341Z,7.70
2023-06-02T01:10:46.502Z,10.93
2023-06-02T01:16:14.109Z,4.38
2023-06-02T01:22:42.022Z,6.28
2023-06-02T01:28:08.324Z,4.30
2023-06-02T01:33:41.645Z,11.38
2023-06-02T01:39:10.055Z,15.25
2023-06-02T01:44:36.912Z,6.43
2023-06-02T01:49:59.980Z,5.55
2023-06-02T01:55:24.453Z,6.88
2023-06-02T02:00:51.332Z,11.82
2023-06-02T02:06:15.549Z,16.92
2023-06-02T02:11:42.500Z,21.23
2023-06-02T02:17:07.682Z,9.93
2023-06-02T02:22:31.335Z,16.45
2023-06-02T02:28:00.527Z,15.70
2023-06-02T02:33:24.897Z,7.90
2023-06-02T02:38:48.711Z,7.55
2023-06-02T02:44:19.278Z,22.08
2023-06-02T02:49:44.953Z,13.23
2023-06-02T02:55:09.310Z,14.77
2023-06-02T03:00:34.529Z,15.60
2023-06-02T03:06:03.125Z,20.35
2023-06-02T03:11:27.680Z,33.20
2023-06-02T03:16:58.127Z,33.65
2023-06-02T03:22:32.283Z,31.25
2023-06-02T03:28:01.227Z,36.15
2023-06-02T03:33:25.547Z,45.38
2023-06-02T03:38:54.056Z,45.78
2023-06-02T03:44:17.230Z,49.20
2023-06-02T03:49:44.101Z,38.22
2023-06-02T03:55:17.369Z,42.30
2023-06-02T04:00:42.688Z,36.38
2023-06-02T04:06:06.089Z,49.15
2023-06-02T04:11:33.513Z,31.02
2023-06-02T04:16:57.630Z,21.65
2023-06-02T04:22:21.867Z,28.08
2023-06-02T04:27:50.750Z,25.45
2023-06-02T04:34:13.331Z,21.20
2023-06-02T04:40:17.544Z,25.65
2023-06-02T04:46:43.887Z,23.25
2023-06-02T04:52:08.315Z,25.85
2023-06-02T04:57:31.946Z,35.47
2023-06-02T05:02:59.117Z,20.40
2023-06-02T05:08:25.452Z,24.38
2023-06-02T05:13:49.055Z,25.80
2023-06-02T05:19:22.421Z,24.27
2023-06-02T05:24:49.821Z,19.67
2023-06-02T05:30:13.417Z,8.10
2023-06-02T05:35:40.505Z,11.05
2023-06-02T05:41:18.602Z,8.18
2023-06-02T05:46:44.526Z,8.98
2023-06-02T05:52:09.745Z,17.63
2023-06-02T05:57:41.207Z,2.22
2023-06-02T06:03:06.306Z,5.10
2023-06-02T06:08:37.051Z,9.38
2023-06-02T06:14:04.094Z,7.68
2023-06-02T06:19:27.718Z,13.55
2023-06-02T06:24:52.319Z,3.80
2023-06-02T06:30:16.018Z,5.63
2023-06-02T06:35:39.295Z,9.52
2023-06-02T06:41:12.084Z,14.23
2023-06-02T06:46:35.655Z,15.38
2023-06-02T06:52:00.137Z,7.15
2023-06-02T06:57:24.502Z,14.07
2023-06-02T07:02:49.629Z,1.73
2023-06-02T07:08:15.925Z,8.57
2023-06-02T07:13:41.633Z,5.32
2023-06-02T07:19:04.948Z,6.90
2023-06-02T07:24:28.340Z,9.40
2023-06-02T07:29:52.653Z,11.18
2023-06-02T07:35:17.231Z,4.40
2023-06-02T07:40:40.347Z,5.30
2023-06-02T07:46:05.031Z,3.20
2023-06-02T07:51:28.422Z,2.08
2023-06-02T07:56:52.307Z,2.67
2023-06-02T08:02:16.991Z,3.60
2023-06-02T08:07:40.667Z,11.93
2023-06-02T08:13:04.337Z,6.50
2023-06-02T08:18:29.991Z,5.70
2023-06-02T08:23:59.396Z,2.00
2023-06-02T08:29:23.224Z,2.47
2023-06-02T08:34:48.979Z,9.20
2023-06-02T08:40:13.839Z,6.03
2023-06-02T08:45:36.748Z,7.00
2023-06-02T08:51:06.061Z,3.22
2023-06-02T08:56:32.258Z,2.67
2023-06-02T09:01:56.834Z,8.50
2023-06-02T09:07:25.097Z,2.35
2023-06-02T09:12:50.178Z,6.10
2023-06-02T09:18:19.265Z,4.57
2023-06-02T09:23:51.481Z,4.55
2023-06-02T09:29:20.470Z,8.02
2023-06-02T09:34:46.857Z,8.25
2023-06-02T09:40:28.443Z,5.10
2023-06-02T09:46:02.420Z,6.20
2023-06-02T09:51:27.307Z,6.70
2023-06-02T09:56:52.514Z,4.13
2023-06-02T10:02:15.897Z,4.72
2023-06-02T10:07:54.726Z,4.78
2023-06-02T10:13:59.777Z,3.40
2023-06-02T10:19:50.320Z,5.03
2023-06-02T10:25:22.544Z,4.90
2023-06-02T10:31:06.680Z,7.80
2023-06-02T10:36:44.519Z,3.25
2023-06-02T10:42:09.278Z,4.47
2023-06-02T10:47:40.272Z,4.43
2023-06-02T10:53:14.475Z,11.98
2023-06-02T10:58:50.108Z,2.10
2023-06-02T11:04:31.453Z,7.38
2023-06-02T11:09:57.623Z,6.63
2023-06-02T11:15:27.531Z,8.35
2023-06-02T11:20:52.788Z,4.70
2023-06-02T11:26:17.864Z,8.20
2023-06-02T11:31:49.926Z,8.80
2023-06-02T11:37:16.073Z,4.72
2023-06-02T11:42:41.027Z,2.42
2023-06-02T11:48:20.922Z,4.75
2023-06-02T11:54:00.308Z,5.35
2023-06-02T11:59:26.916Z,7.18
2023-06-02T12:04:50.020Z,13.32
2023-06-02T12:10:31.416Z,7.10
2023-06-02T12:15:55.708Z,15.73
2023-06-02T12:21:27.472Z,24.73
2023-06-02T12:26:51.929Z,3.30
2023-06-02T12:32:17.078Z,3.63
2023-06-02T12:37:43.891Z,1.92
2023-06-02T12:43:09.202Z,4.60
2023-06-02T12:48:32.592Z,8.70
2023-06-02T12:53:56.122Z,7.75
2023-06-02T12:59:20.840Z,8.32
2023-06-02T13:04:46.630Z,5.10
2023-06-02T13:10:11.776Z,11.02
2023-06-02T13:15:35.929Z,5.30
2023-06-02T13:21:01.011Z,5.63
2023-06-02T13:26:24.082Z,9.15
2023-06-02T13:31:49.055Z,2.53
2023-06-02T13:37:14.205Z,2.67
2023-06-02T13:42:37.340Z,8.80
2023-06-02T13:48:09.615Z,7.60
2023-06-02T13:53:40.849Z,6.07
2023-06-02T13:59:19.314Z,6.00
2023-06-02T14:04:49.216Z,3.70
2023-06-02T14:10:13.008Z,3.70
2023-06-02T14:15:36.206Z,7.22
2023-06-02T14:21:05.230Z,2.42
2023-06-02T14:26:28.355Z,4.78
2023-06-02T14:31:51.824Z,3.88
2023-06-02T14:37:19.502Z,6.65
2023-06-02T14:42:42.478Z,6.15
2023-06-02T14:48:06.086Z,8.27
2023-06-02T14:53:32.751Z,5.97
2023-06-02T14:59:06.689Z,3.58
2023-06-02T15:04:34.212Z,3.00
2023-06-02T15:10:04.119Z,2.40
2023-06-02T15:15:27.269Z,3.85
2023-06-02T15:20:51.331Z,4.25
2023-06-02T15:26:23.813Z,11.77
2023-06-02T15:31:48.350Z,4.65
2023-06-02T15:37:11.437Z,3.22
2023-06-02T15:42:39.636Z,8.02
2023-06-02T15:48:02.944Z,3.95
2023-06-02T15:53:25.889Z,2.58
2023-06-02T15:58:49.897Z,3.63
2023-06-02T16:04:13.230Z,8.18
2023-06-02T16:09:36.557Z,5.47
2023-06-02T16:15:01.143Z,7.40
2023-06-02T16:20:24.337Z,3.35
2023-06-02T16:25:49.314Z,3.60
2023-06-02T16:31:27.145Z,6.00
2023-06-02T16:36:52.726Z,5.47
2023-06-02T16:42:16.438Z,2.60
2023-06-02T16:47:45.967Z,7.30
2023-06-02T16:53:09.094Z,14.68
2023-06-02T16:58:32.082Z,6.63
2023-06-02T17:03:59.926Z,8.13
2023-06-02T17:09:22.905Z,4.13
2023-06-02T17:14:46.081Z,9.50
2023-06-02T17:20:13.607Z,15.77
2023-06-02T17:25:36.674Z,13.17
2023-06-02T17:30:59.889Z,8.43
2023-06-02T17:36:27.110Z,7.95
2023-06-02T17:41:50.204Z,8.70
2023-06-02T17:47:13.316Z,14.60
2023-06-02T17:52:41.522Z,11.85
2023-06-02T17:58:04.907Z,9.48
2023-06-02T18:03:28.216Z,8.98
2023-06-02T18:08:57.292Z,5.57
2023-06-02T18:14:20.714Z,6.03
2023-06-02T18:19:44.322Z,8.77
2023-06-02T18:25:12.259Z,8.20
2023-06-02T18:30:35.527Z,16.63
2023-06-02T18:35:59.125Z,12.02
2023-06-02T18:41:27.852Z,7.18
2023-06-02T18:52:14.677Z,5.40
2023-06-02T18:57:44.201Z,6.95
2023-06-02T19:03:07.749Z,12.40
2023-06-02T19:08:30.474Z,6.10
2023-06-02T19:13:57.686Z,10.73
2023-06-02T19:19:21.072Z,10.57
2023-06-02T19:24:44.315Z,3.30
2023-06-02T19:30:10.562Z,22.95
2023-06-02T19:35:34.773Z,11.15
2023-06-02T19:40:58.045Z,7.32
2023-06-02T19:46:32.484Z,5.90
2023-06-02T19:52:04.633Z,4.28
2023-06-02T19:57:27.795Z,6.95
2023-06-02T20:02:52.487Z,6.55
2023-06-02T20:08:17.072Z,7.30
2023-06-02T20:19:07.792Z,5.82
2023-06-02T20:24:32.773Z,3.17
2023-06-02T20:29:56.481Z,7.00
2023-06-02T20:35:19.859Z,3.05
2023-06-02T20:40:44.332Z,6.30
2023-06-02T20:46:14.106Z,10.73
2023-06-02T20:51:37.456Z,8.40
2023-06-02T20:57:02.307Z,45.75
2023-06-02T21:02:25.574Z,5.47
2023-06-02T21:07:48.995Z,8.52
2023-06-02T21:13:13.246Z,28.17
2023-06-02T21:18:49.037Z,6.63
2023-06-02T21:24:11.932Z,7.03
2023-06-02T21:29:30.904Z,13.10
2023-06-02T21:34:53.909Z,9.38
2023-06-02T21:46:22.938Z,12.60
2023-06-02T21:51:46.923Z,5.47
2023-06-02T21:57:12.252Z,6.55
2023-06-02T22:08:16.929Z,9.25
2023-06-02T22:13:40.020Z,4.70
2023-06-02T22:19:00.443Z,8.32
2023-06-02T22:24:28.370Z,7.00
2023-06-02T22:29:52.634Z,9.63
2023-06-02T22:35:18.954Z,7.18
2023-06-02T22:40:42.230Z,12.18
2023-06-02T22:46:05.357Z,5.38
2023-06-02T22:51:31.907Z,4.40
2023-06-02T22:56:56.294Z,15.32
2023-06-02T23:02:25.542Z,5.22
2023-06-02T23:07:56.597Z,15.65
2023-06-02T23:13:19.894Z,6.10
2023-06-02T23:18:47.982Z,6.33
2023-06-02T23:29:41.579Z,7.85
2023-06-02T23:35:04.786Z,4.63
2023-06-02T23:40:30.864Z,6.53
2023-06-02T23:45:57.128Z,4.53
2023-06-02T23:51:20.029Z,6.25
2023-06-02T23:56:44.494Z,6.88
